Terminal Aerodrome Forecast
Issued by NWS

Home | Current Version | Previous Version | Text Only | Print | Product List | Glossary On
Versions: 1 2 3 4 5 6 7 8 9 10 11 12 13 14 15 16 17 18 19 20 21 22 23 24 25 26 27 28 29 30 31 32 33 34 35
621
FTUS43 KILX 231301 AAA
TAFCMI
TAF AMD
KCMI 231301Z 2313/2412 26014KT 6SM BR VCSH OVC005
     FM231500 28014G24KT P6SM OVC015
     FM232200 29010G20KT P6SM OVC025
     FM240400 30008KT P6SM SCT040
     FM240900 28006KT P6SM BKN100=

USA.gov is the U.S. government's official web portal to all federal, state and local government web resources and services.